Time;durP1;ratioP1;P1;durP2;ratioP2;P2;SDS_P1;SDS_P2;PMS_P1;PMS_P2;Temp;Humidity;BMP_temperature;BMP_pressure;BME280_temperature;BME280_humidity;BME280_pressure;Samples;Min_cycle;Max_cycle;Signal;HPM_P1;HPM_P2
2021/10/15 00:01:41;;;;;;;8.37;6.23;;;;;;;8.42;77.91;100853.22;4850313;29;20497;-76
2021/10/15 00:04:07;;;;;;;6.95;6.25;;;;;;;8.41;78.49;100856.97;4862973;29;20434;-76
2021/10/15 00:06:32;;;;;;;8.17;6.30;;;;;;;8.43;78.63;100848.66;4864611;29;20491;-76
2021/10/15 00:08:57;;;;;;;11.25;7.95;;;;;;;8.38;79.17;100853.88;4854269;29;20450;-76
2021/10/15 00:11:22;;;;;;;8.43;7.37;;;;;;;8.38;79.45;100840.38;4856441;29;20425;-76
2021/10/15 00:13:48;;;;;;;8.65;6.38;;;;;;;8.35;79.69;100847.03;4840486;29;20513;-76
2021/10/15 00:16:13;;;;;;;10.07;6.70;;;;;;;8.34;80.04;100840.81;4859471;29;20426;-76
2021/10/15 00:18:38;;;;;;;8.80;6.60;;;;;;;8.36;80.15;100837.06;4850802;29;20433;-76
2021/10/15 00:21:05;;;;;;;6.53;5.70;;;;;;;8.38;80.08;100840.38;4853696;29;20418;-76
2021/10/15 00:23:30;;;;;;;6.68;5.63;;;;;;;8.41;80.18;100837.22;4856696;29;20468;-77
2021/10/15 00:25:56;;;;;;;6.43;5.90;;;;;;;8.42;80.06;100834.31;4858694;29;20449;-76
2021/10/15 00:28:22;;;;;;;9.52;6.43;;;;;;;8.43;79.35;100835.16;4843037;29;20418;-76
2021/10/15 00:30:47;;;;;;;9.60;5.00;;;;;;;8.42;79.29;100841.59;4842942;29;20438;-76
2021/10/15 00:33:12;;;;;;;6.60;5.37;;;;;;;8.41;79.88;100838.06;4859439;29;20508;-76
2021/10/15 00:35:39;;;;;;;8.13;5.43;;;;;;;8.41;79.48;100837.22;4857152;29;20481;-76
2021/10/15 00:38:04;;;;;;;6.72;5.30;;;;;;;8.42;79.41;100834.31;4839740;29;20466;-77
2021/10/15 00:40:29;;;;;;;7.30;5.47;;;;;;;8.43;79.45;100840.56;4854447;29;20422;-76
2021/10/15 00:42:55;;;;;;;5.27;4.77;;;;;;;8.41;79.27;100837.22;4866626;29;20892;-76
2021/10/15 00:45:20;;;;;;;7.47;5.40;;;;;;;8.38;78.83;100833.09;4838742;29;20782;-76
2021/10/15 00:47:45;;;;;;;6.20;5.57;;;;;;;8.37;78.92;100836.00;4841864;29;20461;-76
2021/10/15 00:50:10;;;;;;;5.47;4.97;;;;;;;8.35;79.04;100833.53;4852041;29;20485;-76
2021/10/15 00:52:37;;;;;;;5.80;5.30;;;;;;;8.34;79.30;100827.31;4859220;29;20426;-76
2021/10/15 00:55:03;;;;;;;7.72;5.40;;;;;;;8.35;79.28;100822.75;4858829;29;20422;-76
2021/10/15 00:57:28;;;;;;;7.63;5.22;;;;;;;8.32;78.92;100825.88;4848763;29;20427;-76
2021/10/15 00:59:53;;;;;;;5.77;4.80;;;;;;;8.30;79.46;100817.16;4861593;29;20944;-76
2021/10/15 01:02:19;;;;;;;6.87;5.90;;;;;;;8.29;78.77;100813.66;4859273;29;20752;-76
2021/10/15 01:04:45;;;;;;;7.63;5.70;;;;;;;8.29;78.90;100808.25;4858426;29;20418;-76
2021/10/15 01:07:10;;;;;;;8.80;5.28;;;;;;;8.29;79.36;100810.13;4856077;29;20518;-76
2021/10/15 01:09:36;;;;;;;9.63;5.43;;;;;;;8.29;79.38;100805.56;4857509;29;20501;-76
2021/10/15 01:12:04;;;;;;;6.25;4.97;;;;;;;8.27;79.03;100794.09;4856882;29;20467;-76
2021/10/15 01:14:30;;;;;;;7.70;5.87;;;;;;;8.28;79.54;100801.19;4855758;29;20471;-76
2021/10/15 01:16:56;;;;;;;6.82;5.88;;;;;;;8.28;78.80;100797.66;4837020;29;20429;-76
2021/10/15 01:19:21;;;;;;;6.30;5.70;;;;;;;8.25;78.92;100789.97;4842303;29;20421;-76
2021/10/15 01:21:47;;;;;;;8.83;6.40;;;;;;;8.21;79.37;100789.59;4858726;29;20420;-76
2021/10/15 01:24:14;;;;;;;6.65;5.63;;;;;;;8.20;79.24;100787.13;4852066;29;20418;-76
2021/10/15 01:26:40;;;;;;;6.00;5.40;;;;;;;8.19;79.14;100786.31;4845643;29;20472;-76
2021/10/15 01:29:05;;;;;;;6.38;5.65;;;;;;;8.17;79.39;100784.84;4856453;29;20437;-76
2021/10/15 01:31:31;;;;;;;7.37;5.80;;;;;;;8.16;79.65;100781.34;4839439;29;20414;-76
2021/10/15 01:33:57;;;;;;;6.78;5.70;;;;;;;8.17;79.62;100780.28;4853225;29;20428;-76
2021/10/15 01:36:23;;;;;;;5.72;5.20;;;;;;;8.17;79.61;100777.56;4858869;29;20429;-76
2021/10/15 01:38:48;;;;;;;7.13;6.22;;;;;;;8.19;79.79;100777.38;4851424;29;20510;-76
2021/10/15 01:41:14;;;;;;;7.30;5.57;;;;;;;8.23;79.39;100775.88;4858878;29;20811;-76
2021/10/15 01:43:39;;;;;;;9.27;5.82;;;;;;;8.27;79.46;100763.56;4852577;29;20434;-76
2021/10/15 01:46:04;;;;;;;6.77;5.17;;;;;;;8.27;78.76;100772.50;4856935;29;20859;-76
2021/10/15 01:48:30;;;;;;;5.77;5.27;;;;;;;8.27;78.67;100771.66;4842018;29;20414;-76
2021/10/15 01:50:55;;;;;;;6.65;5.43;;;;;;;8.25;78.37;100769.22;4841903;29;20426;-76
2021/10/15 01:53:20;;;;;;;7.00;6.40;;;;;;;8.21;79.17;100761.75;4853449;29;20418;-76
2021/10/15 01:55:46;;;;;;;6.00;5.43;;;;;;;8.19;78.97;100755.78;4858600;29;20430;-76
2021/10/15 01:58:12;;;;;;;8.98;6.47;;;;;;;8.20;79.23;100758.22;4853722;29;20439;-76
2021/10/15 02:00:37;;;;;;;7.53;6.17;;;;;;;8.17;79.41;100761.38;4858470;29;20428;-76
2021/10/15 02:03:03;;;;;;;7.30;6.07;;;;;;;8.16;79.40;100757.06;4859246;29;20426;-76
2021/10/15 02:05:30;;;;;;;6.13;5.53;;;;;;;8.16;79.32;100757.06;4858606;29;20418;-76
2021/10/15 02:07:55;;;;;;;8.35;6.20;;;;;;;8.16;79.04;100758.91;4858508;29;20415;-76
2021/10/15 02:10:21;;;;;;;6.43;5.83;;;;;;;8.15;79.39;100754.56;4854635;29;20449;-76
2021/10/15 02:12:46;;;;;;;7.73;6.27;;;;;;;8.17;79.59;100753.28;4847254;29;20428;-76
2021/10/15 02:15:12;;;;;;;5.32;4.75;;;;;;;8.16;78.68;100753.53;4854936;29;20833;-76
2021/10/15 02:17:38;;;;;;;5.05;4.65;;;;;;;8.11;77.34;100754.19;4851793;29;20416;-76
2021/10/15 02:20:06;;;;;;;5.97;4.10;;;;;;;8.06;76.64;100745.09;4853996;29;20879;-76
2021/10/15 02:22:31;;;;;;;5.70;3.53;;;;;;;7.98;75.78;100745.38;4848638;29;20420;-76
2021/10/15 02:24:57;;;;;;;4.17;3.80;;;;;;;7.92;75.82;100740.84;4858438;29;20470;-76
2021/10/15 02:27:22;;;;;;;4.17;3.57;;;;;;;7.87;75.42;100730.72;4849149;29;20797;-76
2021/10/15 02:29:47;;;;;;;4.30;3.53;;;;;;;7.83;75.28;100727.66;4850913;29;20438;-76
2021/10/15 02:32:13;;;;;;;4.40;3.73;;;;;;;7.78;75.23;100721.25;4858513;29;20422;-76
2021/10/15 02:34:38;;;;;;;3.90;3.70;;;;;;;7.76;75.71;100720.66;4851878;29;20429;-76
2021/10/15 02:37:03;;;;;;;4.37;3.57;;;;;;;7.72;75.55;100719.44;4850668;29;20788;-76
2021/10/15 02:39:28;;;;;;;3.97;3.53;;;;;;;7.66;75.26;100717.63;4849690;29;20429;-76
2021/10/15 02:41:54;;;;;;;6.47;3.67;;;;;;;7.63;75.26;100715.38;4854467;29;20432;-76
2021/10/15 02:44:19;;;;;;;9.33;3.90;;;;;;;7.58;75.08;100712.47;4854211;29;20474;-76
2021/10/15 02:46:44;;;;;;;6.60;3.77;;;;;;;7.57;75.39;100710.84;4855908;29;20418;-76
2021/10/15 02:49:10;;;;;;;5.00;3.90;;;;;;;7.53;75.39;100699.66;4838345;29;20861;-76
2021/10/15 02:51:35;;;;;;;6.10;3.63;;;;;;;7.53;74.92;100705.06;4857064;29;20418;-76
2021/10/15 02:54:03;;;;;;;7.88;4.40;;;;;;;7.53;74.23;100705.06;4842811;29;22360;-76
2021/10/15 02:56:29;;;;;;;7.22;4.00;;;;;;;7.51;74.72;100698.25;4851691;29;20422;-76
2021/10/15 02:58:55;;;;;;;11.55;5.20;;;;;;;7.52;75.09;100699.88;4853366;29;20414;-76
2021/10/15 03:01:20;;;;;;;8.90;4.63;;;;;;;7.50;75.13;100693.88;4849368;29;20421;-76
2021/10/15 03:03:45;;;;;;;6.47;5.03;;;;;;;7.48;75.72;100696.78;4837471;29;20430;-76
2021/10/15 03:06:11;;;;;;;7.93;4.57;;;;;;;7.46;75.90;100698.88;4857809;29;20518;-76
2021/10/15 03:08:36;;;;;;;8.33;5.10;;;;;;;7.47;75.66;100689.78;4850922;29;20926;-76
2021/10/15 03:11:03;;;;;;;5.60;4.90;;;;;;;7.47;75.20;100684.38;4856911;29;20446;-76
2021/10/15 03:13:28;;;;;;;5.88;4.40;;;;;;;7.47;75.29;100697.84;4863977;29;20418;-76
2021/10/15 03:15:54;;;;;;;8.10;5.07;;;;;;;7.47;75.49;100695.16;4853984;29;20423;-76
2021/10/15 03:18:19;;;;;;;7.83;5.60;;;;;;;7.48;75.52;100695.97;4853796;29;20406;-76
2021/10/15 03:20:45;;;;;;;6.25;5.55;;;;;;;7.49;76.13;100695.75;4856698;29;20780;-76
2021/10/15 03:23:11;;;;;;;7.30;5.87;;;;;;;7.52;76.48;100691.78;4856810;29;20423;-76
2021/10/15 03:25:37;;;;;;;6.32;5.82;;;;;;;7.54;76.69;100689.72;4857668;29;20443;-76
2021/10/15 03:28:02;;;;;;;9.35;6.70;;;;;;;7.55;76.90;100688.66;4856262;29;20991;-75
2021/10/15 03:30:28;;;;;;;11.10;7.60;;;;;;;7.56;77.08;100687.63;4860605;29;20574;-76
2021/10/15 03:32:53;;;;;;;12.17;8.17;;;;;;;7.56;77.02;100695.72;4852318;29;20906;-76
2021/10/15 03:35:18;;;;;;;8.07;7.10;;;;;;;7.56;78.32;100696.53;4856168;29;20450;-76
2021/10/15 03:37:44;;;;;;;12.70;9.23;;;;;;;7.58;78.67;100696.31;4852228;29;20887;-76
2021/10/15 03:40:10;;;;;;;11.33;9.00;;;;;;;7.59;78.27;100690.69;4854153;29;20437;-76
2021/10/15 03:42:35;;;;;;;13.20;7.60;;;;;;;7.58;78.98;100694.44;4836548;29;20826;-76
2021/10/15 03:45:01;;;;;;;9.47;7.80;;;;;;;7.57;78.91;100694.66;4857455;29;20436;-76
2021/10/15 03:47:26;;;;;;;12.70;8.67;;;;;;;7.54;78.97;100690.53;4851579;29;20416;-76
2021/10/15 03:49:51;;;;;;;8.95;7.70;;;;;;;7.54;79.21;100689.72;4866954;29;20652;-76
2021/10/15 03:52:16;;;;;;;12.33;7.70;;;;;;;7.56;79.54;100687.63;4862015;29;20413;-76
2021/10/15 03:54:42;;;;;;;11.97;7.93;;;;;;;7.54;79.52;100690.53;4861483;29;20910;-76
2021/10/15 03:57:07;;;;;;;12.50;8.60;;;;;;;7.54;79.72;100690.53;4851534;29;20430;-76
2021/10/15 03:59:33;;;;;;;14.07;7.77;;;;;;;7.53;79.99;100686.19;4867406;29;20414;-76
2021/10/15 04:01:58;;;;;;;8.37;7.30;;;;;;;7.50;80.14;100692.03;4852480;29;20425;-76
2021/10/15 04:04:23;;;;;;;11.10;7.93;;;;;;;7.47;79.97;100684.38;4851591;29;20434;-76
2021/10/15 04:06:48;;;;;;;8.30;7.50;;;;;;;7.51;80.64;100677.47;4853559;29;20415;-76
2021/10/15 04:09:14;;;;;;;8.52;7.72;;;;;;;7.50;80.48;100683.09;4867049;29;20470;-76
2021/10/15 04:11:39;;;;;;;9.77;8.77;;;;;;;7.45;79.97;100677.53;4850763;29;20437;-76
2021/10/15 04:14:05;;;;;;;9.80;8.27;;;;;;;7.48;80.12;100680.63;4854894;29;20430;-76
2021/10/15 04:16:30;;;;;;;10.90;8.83;;;;;;;7.47;80.58;100681.69;4856574;29;20439;-76
2021/10/15 04:18:56;;;;;;;12.02;9.90;;;;;;;7.51;80.02;100673.97;4857804;29;20920;-77
2021/10/15 04:21:21;;;;;;;13.10;9.43;;;;;;;7.56;79.43;100674.97;4851918;29;20576;-76
2021/10/15 04:23:46;;;;;;;11.37;9.17;;;;;;;7.55;79.59;100678.69;4859802;29;20425;-76
2021/10/15 04:26:12;;;;;;;11.53;8.80;;;;;;;7.56;79.76;100674.13;4851769;29;20420;-76
2021/10/15 04:28:37;;;;;;;10.97;8.53;;;;;;;7.56;79.94;100674.97;4856082;29;20909;-76
2021/10/15 04:31:02;;;;;;;10.88;9.40;;;;;;;7.54;80.06;100679.72;4854992;29;20426;-76
2021/10/15 04:33:28;;;;;;;14.57;9.93;;;;;;;7.55;79.46;100669.78;4840797;29;20412;-76
2021/10/15 04:35:53;;;;;;;10.60;9.50;;;;;;;7.58;79.00;100672.03;4852600;29;20432;-76
2021/10/15 04:38:19;;;;;;;13.83;9.40;;;;;;;7.55;79.46;100678.69;4835824;29;20524;-76
2021/10/15 04:40:44;;;;;;;12.17;10.47;;;;;;;7.55;79.38;100675.16;4852384;29;20418;-76
2021/10/15 04:43:09;;;;;;;13.43;10.40;;;;;;;7.56;79.19;100671.44;4845135;29;20436;-75
2021/10/15 04:45:35;;;;;;;11.52;9.43;;;;;;;7.59;79.73;100668.28;4846440;29;20432;-76
2021/10/15 04:48:00;;;;;;;13.93;10.03;;;;;;;7.59;79.65;100669.13;4853587;29;20505;-76
2021/10/15 04:50:25;;;;;;;14.53;10.03;;;;;;;7.61;79.31;100667.03;4844306;29;20533;-76
2021/10/15 04:52:51;;;;;;;12.10;10.02;;;;;;;7.61;79.14;100666.19;4857094;29;20433;-76
2021/10/15 04:55:16;;;;;;;13.97;9.97;;;;;;;7.60;78.85;100661.88;4853267;29;20448;-76
2021/10/15 04:57:41;;;;;;;11.50;8.80;;;;;;;7.61;78.49;100666.19;4853126;29;20438;-76
2021/10/15 05:00:08;;;;;;;12.43;9.15;;;;;;;7.62;78.73;100657.06;4855962;29;20436;-76
2021/10/15 05:02:40;;;;;;;12.38;8.77;;;;;;;7.61;78.38;100650.00;4844744;29;20478;-76
2021/10/15 05:05:07;;;;;;;16.17;11.20;;;;;;;7.59;77.96;100657.50;4850612;29;20420;-76
2021/10/15 05:07:34;;;;;;;13.13;9.57;;;;;;;7.56;78.14;100647.16;4853633;29;20821;-76
2021/10/15 05:09:59;;;;;;;11.40;8.55;;;;;;;7.54;78.77;100662.75;4855504;29;20422;-75
2021/10/15 05:12:24;;;;;;;11.20;8.90;;;;;;;7.54;78.73;100665.44;4856616;29;20434;-76
2021/10/15 05:14:50;;;;;;;15.33;9.20;;;;;;;7.48;78.89;100675.22;4855222;29;20915;-76
2021/10/15 05:17:15;;;;;;;13.80;9.03;;;;;;;7.47;79.11;100660.09;4853825;29;20519;-77
2021/10/15 05:19:41;;;;;;;18.53;11.90;;;;;;;7.48;79.61;100656.34;4852395;29;20452;-75
2021/10/15 05:22:07;;;;;;;21.55;15.45;;;;;;;7.51;79.80;100664.00;4851402;29;20429;-76
2021/10/15 05:24:32;;;;;;;51.75;26.13;;;;;;;7.48;79.51;100656.34;4854190;29;20767;-77
2021/10/15 05:26:58;;;;;;;56.40;24.73;;;;;;;7.45;79.54;100656.78;4840339;29;20422;-75
2021/10/15 05:29:23;;;;;;;29.70;14.50;;;;;;;7.41;79.69;100658.25;4863302;29;20416;-75
2021/10/15 05:31:49;;;;;;;18.63;11.33;;;;;;;7.42;79.71;100665.31;4834125;29;20917;-78
2021/10/15 05:34:14;;;;;;;20.63;13.87;;;;;;;7.41;79.81;100660.16;4852171;29;20443;-76
2021/10/15 05:36:39;;;;;;;17.30;13.13;;;;;;;7.37;79.83;100658.94;4844581;29;20775;-76
2021/10/15 05:39:06;;;;;;;17.83;11.53;;;;;;;7.35;79.73;100661.84;4856643;29;20957;-76
2021/10/15 05:41:31;;;;;;;15.10;10.55;;;;;;;7.35;80.38;100659.16;4838881;29;20939;-77
2021/10/15 05:43:57;;;;;;;10.75;9.35;;;;;;;7.42;79.68;100661.78;4853622;29;20414;-76
2021/10/15 05:46:22;;;;;;;9.77;8.30;;;;;;;7.46;79.21;100668.41;4848501;29;20453;-76
2021/10/15 05:48:47;;;;;;;10.83;8.83;;;;;;;7.45;79.24;100672.13;4852053;29;20418;-76
2021/10/15 05:51:13;;;;;;;10.00;8.45;;;;;;;7.42;79.82;100672.56;4851256;29;20474;-75
2021/10/15 05:53:39;;;;;;;10.93;8.40;;;;;;;7.44;79.44;100662.41;4854441;29;20429;-76
2021/10/15 06:01:14;;;;;;;11.02;8.82;;;;;;;7.53;78.13;100671.88;4858458;29;20433;-76
2021/10/15 06:03:41;;;;;;;14.25;9.25;;;;;;;7.51;78.49;100677.47;4857209;29;20441;-76
2021/10/15 06:16:48;;;;;;;12.77;9.60;;;;;;;7.56;79.34;100669.56;4854929;29;20929;-75
2021/10/15 06:19:17;;;;;;;14.57;10.02;;;;;;;7.58;78.39;100662.06;4853197;29;20422;-76
2021/10/15 06:21:43;;;;;;;14.45;9.55;;;;;;;7.55;79.28;100665.22;4863992;29;20834;-77
2021/10/15 06:24:08;;;;;;;11.45;9.18;;;;;;;7.54;79.33;100662.75;4861766;29;20418;-76
2021/10/15 06:26:34;;;;;;;11.43;9.40;;;;;;;7.51;79.66;100676.69;4854460;29;20508;-77
2021/10/15 06:28:59;;;;;;;14.77;11.40;;;;;;;7.49;79.89;100668.78;4855127;29;20427;-76
2021/10/15 06:31:24;;;;;;;14.87;11.07;;;;;;;7.50;79.59;100680.41;4860431;29;20498;-75
2021/10/15 06:33:50;;;;;;;13.10;10.47;;;;;;;7.47;79.65;100676.28;4860329;29;20418;-77
2021/10/15 06:36:15;;;;;;;15.07;10.57;;;;;;;7.49;79.82;100678.75;4854742;29;20921;-77
2021/10/15 06:38:41;;;;;;;13.27;10.70;;;;;;;7.47;80.42;100678.97;4855951;29;20418;-76
2021/10/15 06:41:06;;;;;;;18.83;10.93;;;;;;;7.49;80.14;100682.28;4855376;29;20424;-76
2021/10/15 06:43:32;;;;;;;13.17;9.33;;;;;;;7.57;79.72;100678.50;4854490;29;20530;-76
2021/10/15 06:45:57;;;;;;;12.55;9.85;;;;;;;7.65;79.68;100670.09;4845550;29;20946;-77
2021/10/15 06:48:22;;;;;;;13.30;9.50;;;;;;;7.65;79.76;100679.03;4868821;29;20500;-78
2021/10/15 06:50:47;;;;;;;12.63;10.13;;;;;;;7.70;79.25;100681.06;4861364;29;20445;-78
2021/10/15 06:53:13;;;;;;;13.85;10.75;;;;;;;7.70;79.46;100681.91;4855025;29;20519;-78
2021/10/15 06:55:39;;;;;;;14.00;10.45;;;;;;;7.74;79.43;100684.97;4841933;29;20418;-77
2021/10/15 06:58:05;;;;;;;15.63;10.57;;;;;;;7.78;79.59;100676.22;4860547;29;20419;-75
2021/10/15 07:00:30;;;;;;;15.93;10.65;;;;;;;7.86;79.14;100679.69;4868541;29;20419;-78
2021/10/15 07:02:56;;;;;;;12.45;9.90;;;;;;;7.88;78.77;100677.56;4858349;29;20471;-75
2021/10/15 07:05:21;;;;;;;13.23;10.07;;;;;;;7.89;79.00;100681.94;4854687;29;20425;-74
2021/10/15 07:07:46;;;;;;;16.53;10.93;;;;;;;7.83;79.14;100683.66;4859619;29;20844;-75
2021/10/15 07:10:12;;;;;;;13.47;10.70;;;;;;;7.81;79.44;100677.63;4860978;29;20612;-77
2021/10/15 07:12:41;;;;;;;14.43;10.10;;;;;;;7.80;79.17;100686.81;4860573;29;20411;-77
2021/10/15 07:15:09;;;;;;;13.30;10.00;;;;;;;7.81;79.11;100691.13;4858882;29;20412;-77
2021/10/15 07:17:35;;;;;;;22.23;11.23;;;;;;;7.76;79.78;100696.38;4864891;29;20415;-77
2021/10/15 07:20:00;;;;;;;15.47;11.30;;;;;;;7.72;80.01;100701.38;4846360;29;20831;-77
2021/10/15 07:22:26;;;;;;;17.53;10.83;;;;;;;7.75;79.34;100698.25;4854788;29;20923;-77
2021/10/15 07:24:52;;;;;;;10.13;9.02;;;;;;;7.80;79.39;100700.28;4838993;29;20418;-77
2021/10/15 07:27:17;;;;;;;13.83;10.40;;;;;;;7.84;79.71;100694.22;4867674;29;20773;-77
2021/10/15 07:29:42;;;;;;;12.63;9.00;;;;;;;7.88;79.63;100696.47;4853367;29;20422;-77
2021/10/15 07:32:08;;;;;;;13.80;10.17;;;;;;;7.82;79.58;100703.59;4860849;29;20426;-77
2021/10/15 07:34:33;;;;;;;15.47;10.00;;;;;;;7.79;79.80;100710.25;4860635;29;20414;-77
2021/10/15 07:36:58;;;;;;;20.75;13.00;;;;;;;7.85;79.84;100713.94;4857504;29;20512;-77
2021/10/15 07:39:24;;;;;;;16.17;10.73;;;;;;;7.94;79.54;100706.38;4853205;29;20823;-77
2021/10/15 07:41:49;;;;;;;14.23;11.23;;;;;;;8.03;79.46;100710.47;4842370;29;20422;-77
2021/10/15 07:44:15;;;;;;;24.30;16.37;;;;;;;8.03;79.77;100705.06;4861294;29;20515;-77
2021/10/15 07:46:41;;;;;;;16.60;11.60;;;;;;;7.94;79.60;100709.06;4864500;29;20449;-77
2021/10/15 07:49:07;;;;;;;16.50;11.27;;;;;;;7.96;80.39;100707.00;4858621;29;20427;-77
2021/10/15 07:51:33;;;;;;;11.93;10.07;;;;;;;8.02;80.64;100716.91;4860566;29;20917;-78
2021/10/15 07:53:59;;;;;;;15.68;12.55;;;;;;;8.08;80.82;100713.31;4848318;29;20420;-77
2021/10/15 07:56:24;;;;;;;13.20;11.80;;;;;;;8.16;80.30;100716.56;4850092;29;20499;-77
2021/10/15 07:58:50;;;;;;;12.98;10.63;;;;;;;8.21;80.37;100722.09;4851022;29;20430;-77
2021/10/15 08:01:15;;;;;;;16.30;12.30;;;;;;;8.22;80.20;100718.38;4851505;29;20429;-77
2021/10/15 08:03:40;;;;;;;14.38;11.05;;;;;;;8.24;80.42;100716.25;4844070;29;20978;-76
2021/10/15 08:06:06;;;;;;;13.03;9.93;;;;;;;8.21;80.59;100722.09;4864960;29;20442;-76
2021/10/15 08:08:31;;;;;;;13.00;9.80;;;;;;;8.24;81.15;100726.22;4859960;29;20442;-77
2021/10/15 08:10:57;;;;;;;13.37;9.57;;;;;;;8.26;80.57;100733.06;4834005;29;20434;-76
2021/10/15 08:13:22;;;;;;;12.80;9.87;;;;;;;8.30;80.40;100728.06;4862959;29;20547;-77
2021/10/15 08:15:47;;;;;;;12.73;9.70;;;;;;;8.38;80.27;100735.88;4860035;29;20411;-76
2021/10/15 08:18:13;;;;;;;10.70;8.60;;;;;;;8.47;79.87;100736.41;4856341;29;20414;-77
2021/10/15 08:20:38;;;;;;;12.73;8.93;;;;;;;8.53;79.59;100730.94;4852443;29;20442;-78
2021/10/15 08:23:04;;;;;;;13.40;9.57;;;;;;;8.56;79.79;100727.78;4855651;29;20410;-77
2021/10/15 08:25:29;;;;;;;9.55;8.20;;;;;;;8.58;79.14;100723.00;4858305;29;20422;-77
2021/10/15 08:27:56;;;;;;;13.70;8.77;;;;;;;8.60;79.66;100720.88;4838734;29;20420;-77
2021/10/15 08:30:23;;;;;;;13.25;8.10;;;;;;;8.68;79.54;100728.69;4834373;29;20998;-77
2021/10/15 08:32:48;;;;;;;12.07;8.30;;;;;;;8.73;79.45;100720.72;4859842;29;20497;-77
2021/10/15 08:35:13;;;;;;;10.40;7.93;;;;;;;8.79;79.59;100724.41;4851741;29;20905;-77
2021/10/15 08:37:39;;;;;;;10.33;7.70;;;;;;;8.85;78.62;100721.63;4844995;29;20418;-77
2021/10/15 08:40:07;;;;;;;10.25;8.32;;;;;;;8.91;78.26;100717.19;4853397;29;20427;-77
2021/10/15 08:42:32;;;;;;;8.90;7.80;;;;;;;8.91;78.42;100705.53;4844364;29;20427;-77
2021/10/15 08:44:58;;;;;;;9.73;8.63;;;;;;;9.03;78.70;100709.13;4849036;29;20439;-77
2021/10/15 08:47:23;;;;;;;13.40;9.60;;;;;;;9.13;78.98;100709.38;4857928;29;20414;-76
2021/10/15 08:49:50;;;;;;;8.67;7.77;;;;;;;9.18;78.45;100710.38;4840317;29;20484;-77
2021/10/15 08:52:15;;;;;;;10.02;8.27;;;;;;;9.26;78.72;100707.31;4864379;29;20784;-77
2021/10/15 08:54:45;;;;;;;9.80;8.10;;;;;;;9.30;78.45;100719.34;4859418;29;20519;-77
2021/10/15 08:57:12;;;;;;;9.38;7.53;;;;;;;9.36;78.47;100714.88;4853408;29;20825;-77
2021/10/15 08:59:42;;;;;;;8.43;7.68;;;;;;;9.42;78.48;100713.94;4856067;29;20411;-77
2021/10/15 09:02:14;;;;;;;8.50;7.65;;;;;;;9.46;78.15;100712.44;4858232;29;20922;-74
2021/10/15 09:04:51;;;;;;;9.20;7.47;;;;;;;9.55;78.15;100721.88;4850525;29;20509;-76
2021/10/15 09:07:20;;;;;;;9.27;7.75;;;;;;;9.64;77.26;100712.38;4855751;29;20417;-76
2021/10/15 09:09:48;;;;;;;9.38;7.22;;;;;;;9.84;76.80;100714.78;4859239;29;20904;-76
2021/10/15 09:12:16;;;;;;;9.48;7.30;;;;;;;9.95;76.46;100716.63;4858933;29;20418;-76
2021/10/15 09:14:43;;;;;;;11.20;7.22;;;;;;;10.04;75.62;100717.13;4858686;29;20422;-76
2021/10/15 09:17:15;;;;;;;10.95;7.38;;;;;;;10.16;75.61;100713.41;4848521;29;20424;-76
2021/10/15 09:19:46;;;;;;;8.68;6.88;;;;;;;10.19;75.49;100718.34;4848918;29;20920;-76
2021/10/15 09:22:18;;;;;;;9.52;7.13;;;;;;;10.27;75.77;100709.03;4854309;29;20455;-75
2021/10/15 09:24:50;;;;;;;13.15;7.68;;;;;;;10.26;76.06;100713.63;4839662;29;20414;-76
2021/10/15 09:27:34;;;;;;;13.50;8.35;;;;;;;10.35;75.13;100709.50;4851777;29;20422;-76
2021/10/15 09:30:08;;;;;;;9.77;7.03;;;;;;;10.46;74.93;100701.59;4851975;29;20956;-77
2021/10/15 09:32:39;;;;;;;11.38;7.53;;;;;;;10.60;74.38;100706.53;4848234;29;20468;-77
2021/10/15 09:35:07;;;;;;;10.02;7.45;;;;;;;10.71;74.35;100699.41;4841930;29;20416;-76
2021/10/15 09:37:34;;;;;;;6.37;5.63;;;;;;;10.81;73.15;100697.72;4852573;29;20440;-76
2021/10/15 09:40:11;;;;;;;6.78;5.80;;;;;;;11.07;72.22;100699.03;4855481;29;20421;-76
2021/10/15 09:42:42;;;;;;;7.60;6.60;;;;;;;11.44;71.76;100694.88;4858654;29;20561;-76
2021/10/15 09:45:14;;;;;;;7.97;5.57;;;;;;;11.79;70.48;100693.81;4851053;29;20902;-76
2021/10/15 09:47:57;;;;;;;7.40;5.85;;;;;;;12.44;69.72;100694.00;4842700;29;20410;-76
2021/10/15 09:50:27;;;;;;;11.43;6.78;;;;;;;13.47;66.68;100693.84;4850795;29;20440;-74
2021/10/15 09:52:57;;;;;;;17.23;8.07;;;;;;;14.97;61.96;100697.84;4852211;29;20433;-76
2021/10/15 09:55:43;;;;;;;13.40;6.60;;;;;;;16.57;57.10;100697.38;4861769;29;20425;-76
2021/10/15 09:58:17;;;;;;;13.02;7.10;;;;;;;16.46;56.37;100696.56;4860757;29;20421;-76
2021/10/15 10:00:44;;;;;;;7.65;5.53;;;;;;;15.95;57.12;100690.34;4862186;29;20898;-76
2021/10/15 10:03:09;;;;;;;14.02;6.95;;;;;;;15.83;58.21;100692.56;4847925;29;20426;-75
2021/10/15 10:05:35;;;;;;;10.57;6.03;;;;;;;15.68;58.37;100694.44;4862379;29;20414;-75
2021/10/15 10:08:01;;;;;;;11.93;6.10;;;;;;;15.91;57.69;100693.91;4855694;29;20585;-75
2021/10/15 10:10:32;;;;;;;9.05;5.43;;;;;;;16.18;56.90;100694.44;4854746;29;20469;-75
2021/10/15 10:12:58;;;;;;;14.85;7.28;;;;;;;15.92;57.43;100687.34;4854645;29;20418;-75
2021/10/15 10:15:29;;;;;;;20.07;8.80;;;;;;;16.03;57.11;100686.25;4844514;29;20417;-75
2021/10/15 10:20:37;;;;;;;12.30;7.37;;;;;;;18.48;50.60;100686.16;4855556;29;20414;-75
2021/10/15 10:23:18;;;;;;;7.10;5.78;;;;;;;19.73;46.14;100677.31;4857686;29;20429;-75
2021/10/15 10:25:43;;;;;;;7.80;6.10;;;;;;;19.41;46.00;100688.28;4858454;29;20423;-74
2021/10/15 10:28:19;;;;;;;4.60;4.28;;;;;;;17.74;49.50;100675.66;4856880;29;20446;-75
2021/10/15 10:30:50;;;;;;;5.38;4.88;;;;;;;16.59;53.00;100673.31;4850779;29;20434;-75
2021/10/15 10:33:15;;;;;;;5.15;4.75;;;;;;;15.94;55.70;100676.94;4861948;29;20426;-75
2021/10/15 10:35:43;;;;;;;10.77;6.20;;;;;;;15.74;57.64;100680.50;4856894;29;20506;-75
2021/10/15 10:38:20;;;;;;;12.93;7.03;;;;;;;15.51;59.34;100681.88;4853076;29;20424;-75
2021/10/15 10:41:01;;;;;;;7.55;5.20;;;;;;;15.43;59.74;100682.41;4854613;29;20854;-76
2021/10/15 10:43:53;;;;;;;7.40;5.60;;;;;;;15.31;59.99;100676.34;4854143;29;20529;-75
2021/10/15 10:46:24;;;;;;;8.75;6.07;;;;;;;15.20;58.69;100668.44;4861277;29;20489;-74
2021/10/15 10:48:49;;;;;;;11.85;6.97;;;;;;;15.14;59.86;100672.25;4851674;29;20455;-75
2021/10/15 10:51:26;;;;;;;9.97;5.80;;;;;;;15.07;59.44;100667.03;4845100;29;20477;-75
2021/10/15 10:56:38;;;;;;;7.13;5.50;;;;;;;15.22;59.12;100674.44;4856955;29;20490;-75
2021/10/15 10:59:18;;;;;;;12.32;11.02;;;;;;;15.15;58.66;100671.16;4859344;29;20770;-74
2021/10/15 11:02:10;;;;;;;28.90;10.70;;;;;;;15.02;59.32;100677.94;4852416;29;20410;-74
2021/10/15 11:04:38;;;;;;;6.93;5.13;;;;;;;15.08;58.14;100672.22;4851090;29;20827;-75
2021/10/15 11:07:16;;;;;;;24.70;11.35;;;;;;;15.18;58.80;100662.44;4837202;29;20413;-75
2021/10/15 11:09:57;;;;;;;28.60;16.00;;;;;;;15.20;59.93;100660.25;4853576;29;20526;-75
2021/10/15 11:12:28;;;;;;;14.80;9.60;;;;;;;15.26;59.08;100659.97;4857630;29;20417;-76
2021/10/15 11:14:57;;;;;;;12.88;9.88;;;;;;;15.30;59.09;100660.25;4857645;29;20426;-74
2021/10/15 11:17:32;;;;;;;9.55;6.03;;;;;;;14.97;59.40;100658.81;4857631;29;20414;-74
2021/10/15 11:20:20;;;;;;;5.00;4.53;;;;;;;14.88;60.18;100654.97;4855716;29;20787;-74
2021/10/15 11:22:56;;;;;;;5.03;4.53;;;;;;;14.91;60.33;100649.81;4854940;29;20428;-74
2021/10/15 11:25:24;;;;;;;5.57;4.53;;;;;;;14.93;60.34;100644.91;4859387;29;20410;-75
2021/10/15 11:27:56;;;;;;;4.57;4.10;;;;;;;14.87;60.43;100637.78;4843553;29;20426;-75
2021/10/15 11:30:24;;;;;;;4.13;3.73;;;;;;;14.82;58.97;100645.16;4858838;29;20441;-75
2021/10/15 11:32:50;;;;;;;4.07;3.67;;;;;;;14.85;59.72;100647.34;4853124;29;20422;-75
2021/10/15 11:35:17;;;;;;;4.00;3.70;;;;;;;14.91;59.83;100646.25;4852530;29;20534;-75
2021/10/15 11:37:45;;;;;;;5.93;3.72;;;;;;;15.03;59.77;100644.09;4854548;29;20499;-76
2021/10/15 11:40:17;;;;;;;5.22;4.13;;;;;;;15.16;58.62;100657.22;4848109;29;20441;-76
2021/10/15 11:42:42;;;;;;;4.65;4.10;;;;;;;15.21;59.41;100656.44;4857090;29;20459;-76
2021/10/15 11:45:28;;;;;;;4.35;3.92;;;;;;;15.02;59.85;100648.72;4834674;29;20827;-75
2021/10/15 11:48:03;;;;;;;5.57;4.50;;;;;;;15.01;59.77;100652.56;4854241;29;20505;-78